Time;durP1;ratioP1;P1;durP2;ratioP2;P2;SDS_P1;SDS_P2;PMS_P1;PMS_P2;Temp;Humidity;BMP_temperature;BMP_pressure;BME280_temperature;BME280_humidity;BME280_pressure;Samples;Min_cycle;Max_cycle;Signal;HPM_P1;HPM_P2
2022/08/05 00:01:21;;;;;;;5.10;4.90;;;;;;;19.13;100.00;100897.69;6035346;23;20663;-75
2022/08/05 00:03:53;;;;;;;6.28;5.97;;;;;;;19.14;100.00;100893.19;6038942;23;20028;-76
2022/08/05 00:06:23;;;;;;;5.38;5.18;;;;;;;19.08;100.00;100897.25;6037582;23;20014;-76
2022/08/05 00:08:59;;;;;;;6.55;6.25;;;;;;;19.09;100.00;100912.22;6035420;23;20022;-77
2022/08/05 00:11:27;;;;;;;5.38;5.15;;;;;;;18.98;100.00;100898.97;6046829;23;20660;-77
2022/08/05 00:14:12;;;;;;;5.70;5.45;;;;;;;18.10;100.00;100767.22;6025684;23;20007;-78
2022/08/05 00:16:44;;;;;;;5.38;5.18;;;;;;;18.95;100.00;100904.56;6029226;23;20015;-76
2022/08/05 00:19:22;;;;;;;5.72;5.40;;;;;;;18.95;100.00;100904.56;6046414;23;20007;-75
2022/08/05 00:21:58;;;;;;;6.93;6.53;;;;;;;18.97;100.00;100899.97;6038062;23;20036;-76
2022/08/05 00:24:29;;;;;;;5.53;5.32;;;;;;;18.90;100.00;100923.59;6038543;23;20042;-76
2022/08/05 00:26:58;;;;;;;6.10;5.80;;;;;;;18.81;100.00;100899.56;6025023;23;20145;-76
2022/08/05 00:29:30;;;;;;;5.53;5.32;;;;;;;17.21;100.00;100652.38;6034009;23;20073;-78
2022/08/05 00:32:09;;;;;;;5.10;4.90;;;;;;;18.85;100.00;100890.38;5999850;23;20509;-76
2022/08/05 00:34:51;;;;;;;5.97;5.68;;;;;;;18.78;100.00;100895.31;6039709;23;20017;-76
2022/08/05 00:37:32;;;;;;;5.30;5.10;;;;;;;18.71;100.00;100880.84;6053685;23;20053;-78
2022/08/05 00:40:20;;;;;;;5.50;5.20;;;;;;;18.68;100.00;100883.75;6033816;23;20062;-75
2022/08/05 00:42:56;;;;;;;6.20;5.90;;;;;;;18.05;100.00;100774.72;6042937;23;20015;-75
2022/08/05 00:45:27;;;;;;;5.20;5.00;;;;;;;18.62;100.00;100865.66;6045434;23;20049;-77
2022/08/05 00:48:18;;;;;;;16.63;5.53;;;;;;;18.60;100.00;100872.91;6033876;23;20065;-79
2022/08/05 00:50:56;;;;;;;6.22;5.93;;;;;;;18.59;100.00;100876.56;6021311;23;20011;-77
2022/08/05 00:53:34;;;;;;;5.15;4.95;;;;;;;17.93;100.00;100755.34;6037510;23;20039;-76
2022/08/05 00:56:21;;;;;;;5.75;5.45;;;;;;;17.72;100.00;100728.69;6017749;23;20015;-78
2022/08/05 00:58:49;;;;;;;5.47;5.28;;;;;;;18.61;100.00;100879.94;6035630;23;20169;-77
2022/08/05 01:01:19;;;;;;;6.00;5.70;;;;;;;18.33;100.00;100855.63;6037818;23;20086;-75
2022/08/05 01:04:06;;;;;;;5.72;5.45;;;;;;;18.52;100.00;100901.00;6041818;23;20015;-75
2022/08/05 01:06:39;;;;;;;5.22;5.03;;;;;;;18.51;100.00;100901.13;6032451;23;20030;-76
2022/08/05 01:09:09;;;;;;;5.50;5.30;;;;;;;18.51;100.00;100896.63;6024335;23;20233;-75
2022/08/05 01:11:38;;;;;;;5.15;4.95;;;;;;;18.49;100.00;100903.06;6032358;23;20011;-76
2022/08/05 01:14:13;;;;;;;5.30;5.10;;;;;;;18.43;100.00;100903.56;6008549;23;20381;-76
2022/08/05 01:16:58;;;;;;;6.45;6.15;;;;;;;18.25;100.00;100874.88;6030508;23;20015;-76
2022/08/05 01:19:35;;;;;;;5.30;5.10;;;;;;;18.36;100.00;100887.25;6028363;23;20027;-77
2022/08/05 01:22:24;;;;;;;6.05;5.75;;;;;;;18.31;100.00;100881.50;6001189;23;20086;-75
2022/08/05 01:25:08;;;;;;;6.68;6.38;;;;;;;18.25;100.00;100872.22;6006574;23;20400;-76
2022/08/05 01:28:04;;;;;;;4.97;4.78;;;;;;;18.17;100.00;100872.00;6031835;23;20019;-76
2022/08/05 01:30:38;;;;;;;5.10;4.90;;;;;;;18.05;100.00;100857.06;6013836;23;20590;-78
2022/08/05 01:33:20;;;;;;;5.20;5.00;;;;;;;18.15;100.00;100884.56;6033046;23;20027;-75
2022/08/05 01:35:54;;;;;;;5.97;5.70;;;;;;;17.87;100.00;100848.78;6011056;23;20038;-76
2022/08/05 01:38:25;;;;;;;5.00;4.80;;;;;;;18.18;100.00;100897.59;6029760;23;20029;-75
2022/08/05 01:40:58;;;;;;;6.38;5.97;;;;;;;17.89;100.00;100857.44;6035221;23;20036;-77
2022/08/05 01:43:28;;;;;;;5.60;5.30;;;;;;;17.94;100.00;100872.06;6033617;23;20023;-76
2022/08/05 01:45:56;;;;;;;6.38;6.07;;;;;;;17.96;100.00;100869.28;6036604;23;20017;-76
2022/08/05 01:48:28;;;;;;;5.32;5.13;;;;;;;18.11;100.00;100886.63;6032869;23;20038;-77
2022/08/05 01:50:55;;;;;;;6.50;6.20;;;;;;;18.20;100.00;100900.13;6030735;23;20270;-76
2022/08/05 01:53:34;;;;;;;5.38;5.18;;;;;;;18.17;100.00;100916.31;6010110;23;20339;-77
2022/08/05 01:56:30;;;;;;;6.40;6.10;;;;;;;18.48;100.00;100959.81;6035168;23;20520;-78
2022/08/05 01:59:22;;;;;;;5.40;5.20;;;;;;;18.50;100.00;100960.53;6032836;23;20527;-76
2022/08/05 02:02:16;;;;;;;6.43;6.13;;;;;;;17.56;100.00;100814.03;6031229;23;20023;-76
2022/08/05 02:04:57;;;;;;;5.13;4.93;;;;;;;18.44;100.00;100964.56;6014758;23;20015;-76
2022/08/05 02:07:24;;;;;;;5.47;5.18;;;;;;;18.44;100.00;100961.91;6017016;23;20045;-76
2022/08/05 02:09:57;;;;;;;6.20;5.90;;;;;;;18.44;100.00;100959.25;6034631;23;20050;-76
2022/08/05 02:12:50;;;;;;;5.70;5.40;;;;;;;18.34;100.00;100967.13;6011872;23;20022;-76
2022/08/05 02:15:50;;;;;;;5.60;5.30;;;;;;;18.30;100.00;100956.84;6036144;23;20799;-75
2022/08/05 02:18:32;;;;;;;5.60;5.30;;;;;;;18.30;100.00;100972.78;6041823;23;20046;-75
2022/08/05 02:21:11;;;;;;;6.28;5.97;;;;;;;18.32;100.00;100960.22;6032677;23;20084;-76
2022/08/05 02:23:54;;;;;;;5.10;4.90;;;;;;;18.34;100.00;100960.94;6040409;23;20085;-75
2022/08/05 02:26:48;;;;;;;5.30;5.00;;;;;;;18.33;100.00;100972.56;6032683;23;20049;-78
2022/08/05 02:29:23;;;;;;;5.30;5.10;;;;;;;18.37;100.00;100978.47;6008799;23;20735;-75
2022/08/05 02:32:12;;;;;;;5.22;5.03;;;;;;;18.29;100.00;100997.69;6032548;23;20074;-76
2022/08/05 02:34:52;;;;;;;5.78;5.47;;;;;;;17.46;100.00;100866.13;6010561;23;20051;-77
2022/08/05 02:37:25;;;;;;;5.00;4.80;;;;;;;18.27;100.00;101007.59;6014699;23;20050;-75
2022/08/05 02:40:02;;;;;;;6.78;6.38;;;;;;;18.13;100.00;100993.56;6021946;23;20022;-76
2022/08/05 02:42:30;;;;;;;5.45;5.20;;;;;;;18.06;100.00;100983.56;6007931;23;20027;-77
2022/08/05 02:45:02;;;;;;;6.30;6.00;;;;;;;18.30;100.00;101044.53;6035591;23;20014;-76
2022/08/05 02:47:35;;;;;;;5.50;5.20;;;;;;;18.30;100.00;101045.38;6016873;23;20043;-77
2022/08/05 02:50:23;;;;;;;5.45;5.25;;;;;;;13.09;100.00;100188.19;6091870;18;20031;-76
2022/08/05 02:53:05;;;;;;;6.50;6.20;;;;;;;18.07;100.00;100977.28;6048807;23;20007;-76
2022/08/05 02:55:40;;;;;;;5.20;5.00;;;;;;;18.15;100.00;100956.28;6023976;23;20019;-78
2022/08/05 02:58:22;;;;;;;5.20;5.00;;;;;;;17.04;100.00;100779.22;6069827;23;20027;-77
2022/08/05 03:01:42;;;;;;;;;;;;;;;;;;;;;
2022/08/05 03:04:30;;;;;;;5.45;5.20;;;;;;;16.11;100.00;100570.03;6035785;23;20018;-78
2022/08/05 03:07:12;;;;;;;5.30;5.10;;;;;;;16.83;100.00;100734.00;6037816;23;20102;-77
2022/08/05 03:10:30;;;;;;;;;;;;;;;;;;;;;
2022/08/05 03:18:06;;;;;;;5.97;5.38;;;;;;;16.58;100.00;100681.19;5664831;25;20711;-79
2022/08/05 03:24:43;;;;;;;5.65;5.35;;;;;;;15.00;100.00;100448.81;6199541;22;20158;-79
2022/08/05 03:27:16;;;;;;;5.40;5.10;;;;;;;14.15;100.00;100335.31;6164874;23;20021;-79
2022/08/05 03:30:00;;;;;;;;;;;;;;;;;;;;;
2022/08/05 03:32:40;;;;;;;5.22;5.03;;;;;;;17.09;100.00;100815.97;6141899;23;20023;-78
2022/08/05 03:35:12;;;;;;;6.00;5.70;;;;;;;13.71;100.00;100287.47;6117871;23;20086;-79
2022/08/05 03:37:39;;;;;;;5.93;5.50;;;;;;;17.74;100.00;100880.75;6145549;23;20521;-79
2022/08/05 03:40:12;;;;;;;5.75;5.45;;;;;;;18.05;100.00;100929.59;6123682;23;20014;-79
2022/08/05 03:42:40;;;;;;;5.70;5.40;;;;;;;18.05;100.00;100929.59;6115420;23;20010;-79
2022/08/05 03:45:18;;;;;;;5.68;5.38;;;;;;;17.69;100.00;100890.88;6127006;23;20569;-79
2022/08/05 03:47:48;;;;;;;6.22;5.82;;;;;;;18.03;100.00;100930.69;6080750;23;20030;-78
2022/08/05 03:50:17;;;;;;;6.00;5.70;;;;;;;17.53;100.00;100857.56;6132709;23;20028;-79
2022/08/05 03:52:52;;;;;;;5.97;5.40;;;;;;;17.72;100.00;100866.72;6099257;23;20069;-79
2022/08/05 03:55:53;;;;;;;5.28;5.07;;;;;;;17.25;100.00;100783.78;6132690;23;20025;-78
2022/08/05 03:58:39;;;;;;;5.68;5.38;;;;;;;17.60;100.00;100825.22;6111035;23;20593;-78
2022/08/05 04:01:08;;;;;;;8.68;5.80;;;;;;;18.04;100.00;100881.91;6122589;23;20036;-78
2022/08/05 04:03:43;;;;;;;6.43;6.03;;;;;;;17.65;100.00;100815.94;6153559;23;20017;-80
2022/08/05 04:06:32;;;;;;;5.43;5.13;;;;;;;18.06;100.00;100893.25;6106215;23;20502;-79
2022/08/05 04:09:00;;;;;;;7.10;6.68;;;;;;;18.10;100.00;100890.25;6148247;23;20081;-79
2022/08/05 04:11:27;;;;;;;5.53;5.25;;;;;;;17.41;100.00;100748.94;6132219;23;20060;-79
2022/08/05 04:14:16;;;;;;;5.82;5.53;;;;;;;18.14;100.00;100846.53;6153497;23;20013;-78
2022/08/05 04:16:43;;;;;;;6.00;5.60;;;;;;;17.93;100.00;100830.53;6115247;23;20067;-77
2022/08/05 04:19:11;;;;;;;5.70;5.40;;;;;;;17.13;100.00;100698.91;6155290;23;20027;-78
2022/08/05 04:21:39;;;;;;;5.55;5.25;;;;;;;16.01;100.00;100529.38;6088235;23;20030;-79
2022/08/05 04:24:25;;;;;;;5.60;5.20;;;;;;;16.75;100.00;100627.72;6119275;23;20575;-78
2022/08/05 04:26:53;;;;;;;6.90;6.60;;;;;;;18.02;100.00;100838.69;6114807;23;20014;-78
2022/08/05 04:29:23;;;;;;;5.28;5.07;;;;;;;17.92;100.00;100836.81;6146375;23;20025;-77
2022/08/05 04:31:52;;;;;;;6.43;6.13;;;;;;;18.13;100.00;100886.50;6102760;23;20014;-77
2022/08/05 04:34:22;;;;;;;5.45;5.25;;;;;;;17.43;100.00;100754.94;6138386;23;20041;-76
2022/08/05 04:36:59;;;;;;;7.05;6.65;;;;;;;17.73;100.00;100780.81;6099659;23;20018;-77
2022/08/05 04:39:28;;;;;;;5.72;5.45;;;;;;;18.22;100.00;100868.94;6137875;23;20058;-77
2022/08/05 04:41:55;;;;;;;7.35;6.95;;;;;;;17.23;100.00;100732.66;6095286;23;20084;-78
2022/08/05 04:44:21;;;;;;;5.68;5.38;;;;;;;17.22;100.00;100745.09;6096861;23;20047;-79
2022/08/05 04:46:58;;;;;;;6.95;6.65;;;;;;;17.88;100.00;100848.66;6094779;23;20030;-78
2022/08/05 04:49:36;;;;;;;6.53;6.13;;;;;;;17.98;100.00;100847.88;6114352;23;20077;-78
2022/08/05 04:52:23;;;;;;;5.63;5.43;;;;;;;18.21;100.00;100883.22;6089915;23;20478;-78
2022/08/05 04:54:53;;;;;;;6.57;6.28;;;;;;;18.24;100.00;100905.06;6111841;23;20026;-78
2022/08/05 04:57:22;;;;;;;5.60;5.35;;;;;;;17.69;100.00;100822.69;6055173;23;20427;-78
2022/08/05 04:59:55;;;;;;;7.07;6.70;;;;;;;17.66;100.00;100803.50;6088476;23;20025;-79
2022/08/05 05:02:21;;;;;;;6.00;5.70;;;;;;;18.26;100.00;100892.50;6045072;23;20010;-79
2022/08/05 05:05:04;;;;;;;6.60;6.30;;;;;;;17.97;100.00;100831.13;6100481;23;20041;-78
2022/08/05 05:07:51;;;;;;;6.60;6.30;;;;;;;17.66;100.00;100774.31;6060404;23;20260;-79
2022/08/05 05:10:27;;;;;;;6.15;5.85;;;;;;;18.18;100.00;100886.97;6049472;23;20584;-78
2022/08/05 05:12:55;;;;;;;5.18;4.97;;;;;;;17.03;100.00;100668.81;6093224;23;20018;-78
2022/08/05 05:15:24;;;;;;;6.13;5.72;;;;;;;17.11;100.00;100686.75;6055093;23;20036;-78
2022/08/05 05:18:15;;;;;;;6.00;5.70;;;;;;;17.02;100.00;100656.53;6100592;23;20005;-79
2022/08/05 05:20:56;;;;;;;7.10;6.65;;;;;;;18.06;100.00;100809.13;6122321;23;20021;-79
2022/08/05 05:23:24;;;;;;;5.70;5.43;;;;;;;17.80;100.00;100758.13;6061454;23;20033;-79
2022/08/05 05:25:50;;;;;;;6.55;6.25;;;;;;;18.17;100.00;100828.66;6093002;23;20010;-78
2022/08/05 05:28:18;;;;;;;5.72;5.43;;;;;;;18.51;100.00;100882.50;6137363;23;20422;-79
2022/08/05 05:30:46;;;;;;;6.40;6.00;;;;;;;17.98;100.00;100805.41;6087492;23;20025;-79
2022/08/05 05:33:15;;;;;;;5.60;5.30;;;;;;;17.94;100.00;100783.56;6097417;23;20018;-79
2022/08/05 05:35:46;;;;;;;5.93;5.63;;;;;;;17.89;100.00;100773.31;6090863;23;20102;-79
2022/08/05 05:38:14;;;;;;;5.53;5.22;;;;;;;17.92;100.00;100780.19;6128669;23;20041;-78
2022/08/05 05:40:56;;;;;;;6.93;6.43;;;;;;;17.49;100.00;100715.50;6100663;23;20026;-78
2022/08/05 05:43:23;;;;;;;5.57;5.28;;;;;;;18.57;100.00;100884.66;6137217;23;20029;-79
2022/08/05 05:46:10;;;;;;;5.70;5.43;;;;;;;18.21;100.00;100828.28;6116255;23;20070;-78
2022/08/05 05:48:44;;;;;;;5.63;5.38;;;;;;;18.52;100.00;100878.88;6138328;23;20060;-79
2022/08/05 05:51:17;;;;;;;6.53;5.93;;;;;;;18.71;100.00;100900.28;6104803;17;20120;-72
2022/08/05 05:53:46;;;;;;;5.90;5.60;;;;;;;18.47;100.00;100875.75;6033971;23;20045;-74
2022/08/05 05:56:28;;;;;;;6.00;5.70;;;;;;;18.61;100.00;100907.34;6032832;23;20030;-76
2022/08/05 05:59:04;;;;;;;6.82;6.22;;;;;;;18.20;100.00;100829.25;6059380;23;20033;-76
2022/08/05 06:01:34;;;;;;;5.43;5.20;;;;;;;18.67;100.00;100898.03;6029085;23;20137;-73
2022/08/05 06:04:05;;;;;;;8.23;6.38;;;;;;;18.69;100.00;100896.94;6000908;23;20246;-75
2022/08/05 06:06:35;;;;;;;7.18;6.50;;;;;;;17.82;100.00;100753.53;6031251;23;20077;-73
2022/08/05 06:09:04;;;;;;;8.18;7.68;;;;;;;18.68;100.00;100879.31;6025546;23;20026;-73
2022/08/05 06:11:33;;;;;;;6.60;6.20;;;;;;;18.80;100.00;100900.53;6029682;23;20018;-73
2022/08/05 06:14:04;;;;;;;6.80;6.40;;;;;;;18.72;100.00;100899.34;5986649;23;20117;-74
2022/08/05 06:16:31;;;;;;;6.18;5.88;;;;;;;18.76;100.00;100905.22;6016916;23;20015;-73
2022/08/05 06:19:03;;;;;;;8.25;7.68;;;;;;;18.72;100.00;100911.78;6020360;23;20106;-75
2022/08/05 06:21:33;;;;;;;6.38;5.95;;;;;;;18.71;100.00;100913.59;6033110;23;20641;-73
2022/08/05 06:24:07;;;;;;;7.63;7.00;;;;;;;18.68;100.00;100919.19;6025602;23;20023;-74
2022/08/05 06:26:38;;;;;;;7.07;6.68;;;;;;;18.29;100.00;100886.09;6024460;23;20090;-74
2022/08/05 06:29:19;;;;;;;6.03;5.72;;;;;;;18.53;100.00;100931.91;6028119;23;20019;-73
2022/08/05 06:32:07;;;;;;;7.63;7.15;;;;;;;18.51;100.00;100940.97;5982218;23;20023;-75
2022/08/05 06:34:51;;;;;;;7.32;6.72;;;;;;;18.49;100.00;100937.59;6005697;23;20488;-74
2022/08/05 06:37:19;;;;;;;6.00;5.70;;;;;;;18.46;100.00;100957.31;6021051;23;20011;-71
2022/08/05 06:40:06;;;;;;;7.50;7.03;;;;;;;18.36;100.00;100940.41;6011649;23;20066;-74
2022/08/05 06:42:33;;;;;;;6.85;6.45;;;;;;;18.37;100.00;100935.94;6015569;23;20492;-73
2022/08/05 06:44:59;;;;;;;8.15;7.55;;;;;;;18.18;100.00;100912.69;5996151;23;20120;-72
2022/08/05 06:47:34;;;;;;;9.85;6.60;;;;;;;18.38;100.00;100940.28;6012119;23;20625;-72
2022/08/05 06:50:25;;;;;;;6.57;6.28;;;;;;;17.91;100.00;100876.75;6016435;23;20081;-74
2022/08/05 06:52:54;;;;;;;6.55;6.25;;;;;;;18.21;100.00;100901.81;6027527;23;20046;-75
2022/08/05 06:55:36;;;;;;;6.00;5.67;;;;;;;18.38;100.00;100929.66;6018334;23;20022;-74
2022/08/05 06:58:03;;;;;;;8.15;7.75;;;;;;;18.38;100.00;100945.59;6026172;23;20291;-73
2022/08/05 07:00:51;;;;;;;6.57;6.22;;;;;;;18.05;100.00;100907.53;6021391;23;20018;-75
2022/08/05 07:03:18;;;;;;;6.05;5.50;;;;;;;17.84;100.00;100887.03;6033299;23;20366;-73
2022/08/05 07:05:44;;;;;;;7.22;6.82;;;;;;;17.87;100.00;100897.41;6002795;23;20026;-75
2022/08/05 07:08:15;;;;;;;7.97;7.28;;;;;;;18.10;100.00;100947.81;6035185;23;20023;-74
2022/08/05 07:10:44;;;;;;;7.43;6.97;;;;;;;18.02;100.00;100961.72;6003371;23;20038;-73
2022/08/05 07:19:29;;;;;;;6.97;6.50;;;;;;;17.94;100.00;100978.28;6028501;23;20085;-74
2022/08/05 07:22:15;;;;;;;7.65;7.15;;;;;;;17.70;100.00;100957.13;6035803;23;20017;-76
2022/08/05 07:24:42;;;;;;;7.63;6.88;;;;;;;17.57;100.00;100950.22;6033679;23;20028;-75
2022/08/05 07:27:18;;;;;;;7.60;6.90;;;;;;;17.42;100.00;100945.16;6039198;23;20021;-75
2022/08/05 07:29:47;;;;;;;9.60;8.80;;;;;;;17.56;100.00;100983.88;6016521;23;20007;-75
2022/08/05 07:32:37;;;;;;;6.18;5.88;;;;;;;17.15;100.00;100922.41;6028953;23;20019;-74
2022/08/05 07:35:08;;;;;;;7.75;7.35;;;;;;;17.55;100.00;101001.59;6009233;23;20711;-72
2022/08/05 07:38:03;;;;;;;8.35;7.75;;;;;;;17.20;100.00;100923.84;6003362;23;20094;-73
2022/08/05 07:40:37;;;;;;;6.60;6.22;;;;;;;17.60;100.00;101003.91;6038491;23;20047;-74
2022/08/05 07:43:12;;;;;;;7.53;7.03;;;;;;;17.58;100.00;101026.19;6019924;23;20247;-73
2022/08/05 07:45:46;;;;;;;6.88;6.32;;;;;;;17.61;100.00;101018.88;6023317;23;20519;-76
2022/08/05 07:48:23;;;;;;;7.88;7.38;;;;;;;17.28;100.00;100955.94;6009223;23;20046;-73
2022/08/05 07:51:09;;;;;;;7.75;7.15;;;;;;;17.60;100.00;100998.59;5981290;23;20284;-74
2022/08/05 07:53:56;;;;;;;8.10;7.70;;;;;;;17.51;100.00;100980.72;5996734;23;20445;-75
2022/08/05 07:56:23;;;;;;;5.97;5.68;;;;;;;17.58;100.00;101016.47;6021681;23;20583;-75
2022/08/05 07:59:09;;;;;;;6.55;6.05;;;;;;;17.59;100.00;101039.38;5991959;23;20023;-73
2022/08/05 08:01:39;;;;;;;7.22;6.70;;;;;;;17.50;100.00;101002.91;6000713;23;20012;-74
2022/08/05 08:04:17;;;;;;;6.93;6.53;;;;;;;17.55;100.00;101048.53;5996341;23;20028;-74
2022/08/05 08:07:02;;;;;;;6.60;6.30;;;;;;;17.33;100.00;101028.91;5995006;23;20023;-75
2022/08/05 08:09:30;;;;;;;5.35;5.13;;;;;;;17.42;100.00;101056.59;6005743;23;20022;-74
2022/08/05 08:11:57;;;;;;;7.20;6.68;;;;;;;17.00;100.00;100976.63;6001760;23;20027;-72
2022/08/05 08:14:31;;;;;;;5.72;5.45;;;;;;;17.56;100.00;101060.84;6003799;23;20016;-74
2022/08/05 08:16:58;;;;;;;6.75;6.35;;;;;;;17.47;100.00;101062.38;5999049;23;20027;-75
2022/08/05 08:19:25;;;;;;;6.28;5.78;;;;;;;17.46;100.00;101068.66;5998778;23;20039;-73
2022/08/05 08:22:11;;;;;;;6.75;6.22;;;;;;;17.33;100.00;101025.44;6007650;23;20014;-73
2022/08/05 08:24:41;;;;;;;6.47;6.07;;;;;;;17.42;100.00;101040.66;6020224;23;20059;-73
2022/08/05 08:27:17;;;;;;;6.28;5.88;;;;;;;17.56;100.00;101071.47;6015782;23;20500;-74
2022/08/05 08:29:44;;;;;;;7.22;6.82;;;;;;;17.55;100.00;101072.41;5994174;23;20964;-75
2022/08/05 08:32:35;;;;;;;8.35;7.88;;;;;;;17.45;100.00;101076.72;6008872;23;20041;-72
2022/08/05 08:35:08;;;;;;;5.20;5.00;;;;;;;17.43;100.00;101081.28;6004141;23;20088;-69
2022/08/05 08:37:39;;;;;;;5.85;5.55;;;;;;;17.27;100.00;101090.38;6000871;23;20023;-72
2022/08/05 08:40:11;;;;;;;5.88;5.53;;;;;;;17.12;100.00;101097.69;5997277;23;20031;-72
2022/08/05 08:42:39;;;;;;;5.80;5.50;;;;;;;16.62;100.00;101043.00;6002633;23;20544;-72
2022/08/05 08:45:17;;;;;;;5.90;5.60;;;;;;;16.61;100.00;101062.50;6004321;23;20031;-72
2022/08/05 08:47:58;;;;;;;6.70;6.40;;;;;;;16.40;100.00;101025.16;5998128;23;20034;-71
2022/08/05 08:50:46;;;;;;;6.15;5.85;;;;;;;16.70;100.00;101065.34;6015217;23;20011;-72
2022/08/05 08:53:36;;;;;;;5.53;5.22;;;;;;;16.97;100.00;101119.16;6036458;23;20019;-71
2022/08/05 08:56:04;;;;;;;6.95;6.65;;;;;;;16.60;100.00;101050.22;6032853;23;20045;-71
2022/08/05 08:58:32;;;;;;;5.68;5.38;;;;;;;17.10;100.00;101120.81;6033974;23;20574;-71
2022/08/05 09:01:10;;;;;;;5.70;5.40;;;;;;;16.84;100.00;101082.94;6005180;23;20023;-73
2022/08/05 09:03:43;;;;;;;;;;;;;;;17.13;100.00;101133.00;6039672;23;20018;-70
2022/08/05 09:06:13;;;;;;;6.63;6.22;;;;;;;17.00;100.00;101122.44;6041691;23;20353;-76
2022/08/05 09:08:49;;;;;;;5.72;5.43;;;;;;;16.83;100.00;101109.56;6013209;23;20023;-79
2022/08/05 09:11:19;;;;;;;16.00;5.53;;;;;;;17.03;100.00;101155.84;6039039;23;20019;-76
2022/08/05 09:14:06;;;;;;;5.90;5.60;;;;;;;16.61;100.00;101087.19;6022743;23;20542;-75
2022/08/05 09:16:54;;;;;;;8.45;8.05;;;;;;;17.08;100.00;101151.91;6009458;23;20055;-77
2022/08/05 09:19:23;;;;;;;5.55;5.22;;;;;;;17.16;100.00;101154.00;5998590;23;20093;-77
2022/08/05 09:21:53;;;;;;;6.18;5.88;;;;;;;17.02;100.00;101117.00;5999898;23;20041;-75
2022/08/05 09:24:43;;;;;;;5.70;5.40;;;;;;;17.39;100.00;101147.00;6022737;23;20089;-74
2022/08/05 09:27:30;;;;;;;5.65;5.40;;;;;;;17.24;100.00;101143.69;6034631;23;20033;-77
2022/08/05 09:30:19;;;;;;;5.25;5.05;;;;;;;17.29;100.00;101146.00;6023863;23;20070;-73
2022/08/05 09:32:49;;;;;;;5.68;5.38;;;;;;;17.29;100.00;101153.94;6000777;23;20579;-72
2022/08/05 09:35:18;;;;;;;5.00;4.80;;;;;;;16.85;100.00;101084.63;6032085;23;20112;-78
2022/08/05 09:37:57;;;;;;;6.32;6.03;;;;;;;17.46;100.00;101155.34;5999063;23;20036;-75
2022/08/05 09:40:43;;;;;;;5.25;5.05;;;;;;;17.54;100.00;101134.44;6038485;23;20030;-78
2022/08/05 09:43:38;;;;;;;5.03;4.82;;;;;;;17.49;100.00;101155.97;6030470;23;20030;-76
2022/08/05 09:46:29;;;;;;;6.63;6.32;;;;;;;17.62;100.00;101169.19;6016427;23;20038;-76
2022/08/05 09:48:57;;;;;;;5.47;5.18;;;;;;;17.74;100.00;101178.06;6036295;23;20451;-74
2022/08/05 09:51:44;;;;;;;5.20;5.00;;;;;;;17.77;100.00;101153.06;6027186;23;20118;-74
2022/08/05 09:54:16;;;;;;;5.47;5.17;;;;;;;17.93;100.00;101138.53;6051491;23;20045;-73
2022/08/05 09:56:55;;;;;;;6.22;5.93;;;;;;;18.05;100.00;101147.38;6007476;23;20587;-77
2022/08/05 09:59:26;;;;;;;5.30;5.00;;;;;;;18.26;100.00;101176.78;6041569;23;20018;-73
2022/08/05 10:01:53;;;;;;;6.45;6.15;;;;;;;18.55;100.00;101178.97;6008177;23;20063;-74
2022/08/05 10:04:34;;;;;;;5.95;5.65;;;;;;;18.40;100.00;101111.06;6023712;23;20011;-74
2022/08/05 10:07:03;;;;;;;6.32;6.03;;;;;;;18.83;100.00;101179.50;6032464;23;20026;-73
2022/08/05 10:09:54;;;;;;;5.57;5.32;;;;;;;19.25;100.00;101187.66;6004419;23;20043;-75
2022/08/05 10:12:42;;;;;;;5.70;5.40;;;;;;;19.62;100.00;101197.94;6031269;23;20018;-72
2022/08/05 10:15:17;;;;;;;5.80;5.55;;;;;;;19.89;100.00;101195.69;6038896;23;20751;-74
2022/08/05 10:18:18;;;;;;;5.90;5.60;;;;;;;20.02;100.00;101200.00;6016605;23;20039;-73
2022/08/05 10:20:47;;;;;;;5.78;5.50;;;;;;;20.15;100.00;101199.81;6028778;23;20069;-74
2022/08/05 10:23:20;;;;;;;5.43;5.22;;;;;;;20.03;97.28;101185.72;6008080;23;20022;-72
2022/08/05 10:26:11;;;;;;;8.57;8.10;;;;;;;20.48;100.00;101212.06;6025470;23;20282;-76
2022/08/05 10:28:42;;;;;;;5.65;5.35;;;;;;;20.76;98.44;101226.56;6007001;23;20086;-72
2022/08/05 10:31:15;;;;;;;5.63;5.32;;;;;;;17.05;92.79;100634.22;5997010;23;20488;-73
2022/08/05 10:34:02;;;;;;;7.90;7.50;;;;;;;20.49;94.14;101171.94;6024716;23;20550;-74
2022/08/05 10:36:34;;;;;;;5.60;5.35;;;;;;;20.71;90.07;101229.63;6040872;23;20085;-75
2022/08/05 10:39:06;;;;;;;6.82;6.45;;;;;;;21.05;90.18;101228.50;6022313;23;20088;-74
2022/08/05 10:42:00;;;;;;;6.05;5.75;;;;;;;20.57;86.51;101226.41;6013676;23;20021;-75
2022/08/05 10:44:30;;;;;;;5.32;5.13;;;;;;;20.80;91.69;101238.66;6026105;23;20053;-72
2022/08/05 10:46:56;;;;;;;7.45;6.95;;;;;;;20.88;91.50;101188.13;6022214;23;20023;-74
2022/08/05 10:49:25;;;;;;;6.00;5.70;;;;;;;20.95;85.29;101236.47;6004711;23;20034;-74
2022/08/05 10:51:58;;;;;;;6.28;5.97;;;;;;;21.43;88.52;101232.28;6029366;23;20032;-74
2022/08/05 10:55:03;;;;;;;6.50;6.10;;;;;;;21.73;83.69;101238.50;6025024;23;20014;-74
2022/08/05 10:57:30;;;;;;;9.07;6.30;;;;;;;21.72;84.03;101248.34;6039495;23;20026;-75
2022/08/05 11:00:28;;;;;;;7.65;7.25;;;;;;;22.14;81.29;101248.06;6011385;23;20039;-74
2022/08/05 11:03:04;;;;;;;7.28;6.88;;;;;;;22.33;77.08;101247.25;6030907;23;20094;-74
2022/08/05 11:06:06;;;;;;;7.03;6.72;;;;;;;21.67;76.51;101235.41;6007779;23;20077;-74
2022/08/05 11:08:34;;;;;;;6.60;6.30;;;;;;;21.64;77.81;101264.22;6013870;23;20019;-74
2022/08/05 11:11:37;;;;;;;7.03;6.47;;;;;;;21.65;78.05;101273.91;6032404;23;20034;-73
2022/08/05 11:14:35;;;;;;;7.53;7.10;;;;;;;21.10;81.46;101287.66;5950606;23;20018;-74
2022/08/05 11:17:25;;;;;;;6.20;5.90;;;;;;;21.38;84.17;101279.88;6026098;23;20109;-75
2022/08/05 11:20:31;;;;;;;6.72;6.32;;;;;;;21.84;79.40;101284.63;6076321;18;20759;-73
2022/08/05 11:22:59;;;;;;;6.20;5.85;;;;;;;21.89;74.98;101282.41;6097808;23;20114;-74
2022/08/05 11:25:37;;;;;;;6.25;5.93;;;;;;;21.38;76.51;101254.03;6057185;23;20093;-74
2022/08/05 11:28:24;;;;;;;6.40;5.97;;;;;;;21.60;78.88;101273.50;6087779;23;20018;-73
2022/08/05 11:30:55;;;;;;;7.65;7.15;;;;;;;21.82;73.56;101281.25;6053439;23;20167;-75
2022/08/05 11:33:28;;;;;;;6.50;6.15;;;;;;;20.85;74.50;101195.59;6086010;23;20335;-73
2022/08/05 11:36:18;;;;;;;6.72;6.32;;;;;;;21.27;73.52;101287.03;6051051;23;20031;-74
2022/08/05 11:39:06;;;;;;;7.45;7.05;;;;;;;21.60;73.74;101292.19;6072611;23;20905;-73
2022/08/05 11:41:36;;;;;;;6.20;5.90;;;;;;;21.54;75.85;101239.34;6051078;23;20035;-75
2022/08/05 11:44:34;;;;;;;6.38;6.00;;;;;;;22.37;73.66;101287.91;6057312;23;20007;-74
2022/08/05 11:47:21;;;;;;;7.63;7.13;;;;;;;21.32;70.55;101126.41;6046614;23;20022;-75
2022/08/05 11:54:01;;;;;;;7.22;6.82;;;;;;;21.68;70.67;101295.03;6020098;23;20090;-72
2022/08/05 11:57:02;;;;;;;6.07;5.78;;;;;;;22.16;70.65;101291.53;6087387;23;20691;-74
2022/08/05 11:59:49;;;;;;;6.40;6.10;;;;;;;22.18;66.68;101253.97;6022985;23;20684;-74
2022/08/05 12:02:16;;;;;;;6.10;5.80;;;;;;;22.39;67.20;101195.00;6076597;23;20092;-73
2022/08/05 12:04:57;;;;;;;7.75;7.35;;;;;;;22.90;65.63;101161.56;6061190;23;20093;-72
2022/08/05 12:07:25;;;;;;;5.80;5.50;;;;;;;23.02;63.59;101250.59;6090836;23;20030;-73
2022/08/05 12:10:17;;;;;;;6.22;5.93;;;;;;;23.53;64.98;101280.47;6042657;23;20021;-75
2022/08/05 12:12:51;;;;;;;6.40;6.03;;;;;;;22.93;64.40;101273.66;6089505;23;20018;-72
2022/08/05 12:15:26;;;;;;;6.40;6.10;;;;;;;22.19;66.59;101195.03;6035756;23;20018;-74
2022/08/05 12:18:04;;;;;;;5.90;5.60;;;;;;;22.28;67.79;101253.00;6051537;23;20018;-74
2022/08/05 12:20:38;;;;;;;6.00;5.70;;;;;;;22.65;68.11;101260.25;6068520;23;20022;-74
2022/08/05 12:23:12;;;;;;;6.55;6.15;;;;;;;23.17;66.01;101299.94;6006562;23;20387;-74
2022/08/05 12:25:55;;;;;;;6.05;5.75;;;;;;;23.63;63.25;101303.53;6059013;23;20101;-74
2022/08/05 12:28:37;;;;;;;6.30;5.80;;;;;;;23.70;62.26;101253.69;6023389;23;20142;-74